Coppess Corner, Indiana
Current Conditions -  °F | °C
As of 4:42 AM on Thursday 23 Oct 2014 (Local Time) from KFWA Reporting Station
Haze Haze  
Wind Chill: 32°   Ceiling: 200
Heat Index: 32°   Visibility: 0.75mi
Dew Point: 30°   Wind: 0mph
Humidity: 92%   Direction: NA
Pressure: 30.27"   Gusts: NA
Location:  40.7031°N, 84.8406°W
Report Text: KFWA 230842Z 00000KT 3/4SM BR VV002 00/M01 A3027 RMK AO2 R32/1200FT I1000 T00001011
Loading
Personal Weather Stations






























Interactive Weather Map
Tropical Storm Tracking
New forecast layout! Learn more

10-Day Weather Forecast

Advertisements
Track Severe Weather on mobile